Time;durP1;ratioP1;P1;durP2;ratioP2;P2;SDS_P1;SDS_P2;PMS_P1;PMS_P2;Temp;Humidity;BMP_temperature;BMP_pressure;BME280_temperature;BME280_humidity;BME280_pressure;Samples;Min_cycle;Max_cycle;Signal;HPM_P1;HPM_P2
2023/06/20 00:01:29;;;;;;;13.63;9.60;;;;;;;23.77;52.52;95848.38;4989482;28;20518;-72
2023/06/20 00:03:55;;;;;;;13.00;11.33;;;;;;;23.75;52.75;95849.56;4988734;28;20250;-70
2023/06/20 00:06:22;;;;;;;10.90;9.53;;;;;;;23.72;52.66;95853.38;4989177;28;20180;-70
2023/06/20 00:08:47;;;;;;;10.90;9.87;;;;;;;23.68;52.51;95857.38;4988898;28;20173;-71
2023/06/20 00:11:13;;;;;;;10.50;9.60;;;;;;;23.45;53.61;95855.25;4988989;28;20447;-73
2023/06/20 00:13:42;;;;;;;13.93;9.97;;;;;;;23.32;54.02;95862.06;4988392;28;20180;-71
2023/06/20 00:16:09;;;;;;;12.90;9.93;;;;;;;23.46;53.74;95856.94;4988500;28;20199;-70
2023/06/20 00:18:34;;;;;;;13.17;9.50;;;;;;;23.39;54.33;95865.78;4988819;28;20416;-70
2023/06/20 00:21:00;;;;;;;12.00;10.80;;;;;;;23.49;53.91;95877.19;4988663;28;20506;-70
2023/06/20 00:23:26;;;;;;;12.80;10.83;;;;;;;23.52;54.49;95881.41;4988567;28;20207;-70
2023/06/20 00:25:51;;;;;;;26.93;11.80;;;;;;;23.35;55.41;95897.38;4988342;28;20420;-71
2023/06/20 00:28:17;;;;;;;11.57;9.97;;;;;;;23.43;55.15;95888.53;4988837;28;20222;-71
2023/06/20 00:30:43;;;;;;;11.80;10.30;;;;;;;23.41;55.06;95901.25;4988557;28;20180;-71
2023/06/20 00:33:09;;;;;;;10.60;9.50;;;;;;;23.41;55.11;95906.59;4988517;28;20192;-71
2023/06/20 00:35:34;;;;;;;12.70;11.00;;;;;;;23.40;55.59;95910.28;4989115;28;20515;-71
2023/06/20 00:38:01;;;;;;;10.33;9.33;;;;;;;23.19;56.15;95916.00;4991777;28;20204;-72
2023/06/20 00:40:27;;;;;;;10.60;9.60;;;;;;;23.15;56.20;95928.03;4997473;28;20173;-70
2023/06/20 00:42:53;;;;;;;10.60;9.50;;;;;;;23.13;56.20;95930.03;4994042;28;20448;-70
2023/06/20 00:45:30;;;;;;;11.27;10.17;;;;;;;23.16;55.92;95933.22;4992954;28;20889;-70
2023/06/20 00:48:01;;;;;;;15.27;9.27;;;;;;;23.14;55.50;95937.91;4992495;28;20219;-70
2023/06/20 00:50:28;;;;;;;11.00;10.00;;;;;;;23.22;55.17;95940.66;4988528;28;20466;-70
2023/06/20 00:52:59;;;;;;;11.10;9.43;;;;;;;23.18;55.13;95939.28;4987889;28;20440;-69
2023/06/20 00:55:26;;;;;;;10.17;9.13;;;;;;;23.18;55.04;95943.78;4987731;28;20492;-72
2023/06/20 00:57:56;;;;;;;9.37;8.57;;;;;;;23.11;55.08;95943.56;4987918;28;20427;-71
2023/06/20 01:00:22;;;;;;;13.03;9.50;;;;;;;23.15;54.57;95970.84;4987718;28;20506;-71
2023/06/20 01:02:47;;;;;;;12.23;8.83;;;;;;;23.20;54.73;96012.25;4987864;28;20452;-70
2023/06/20 01:05:14;;;;;;;10.30;9.40;;;;;;;23.30;54.61;96022.84;4987250;28;21279;-71
2023/06/20 01:07:58;;;;;;;10.10;8.50;;;;;;;23.20;55.26;96025.63;4987993;28;20235;-72
2023/06/20 01:10:34;;;;;;;12.03;8.50;;;;;;;23.08;55.57;96039.38;4989626;28;20411;-71
2023/06/20 01:13:02;;;;;;;8.30;7.50;;;;;;;23.03;55.70;96039.84;4989389;28;20444;-72
2023/06/20 01:15:52;;;;;;;9.70;7.30;;;;;;;23.07;55.42;96035.88;4989708;28;20470;-72
2023/06/20 01:18:46;;;;;;;7.10;6.50;;;;;;;22.93;55.42;96045.25;4989290;28;20404;-71
2023/06/20 01:21:17;;;;;;;8.30;7.30;;;;;;;23.08;54.82;96039.38;4993110;28;20590;-71
2023/06/20 01:23:54;;;;;;;6.00;5.40;;;;;;;23.07;54.68;96024.31;4988498;28;20455;-72
2023/06/20 01:26:48;;;;;;;6.53;5.93;;;;;;;23.35;53.48;96031.25;4987769;28;20807;-71
2023/06/20 01:29:27;;;;;;;6.33;5.73;;;;;;;23.16;54.42;96028.75;4989251;28;20432;-68
2023/06/20 01:31:57;;;;;;;19.93;6.27;;;;;;;22.94;54.76;96025.53;4987907;28;20443;-72
2023/06/20 01:34:29;;;;;;;9.13;6.10;;;;;;;22.90;54.95;96026.00;4986987;28;20699;-69
2023/06/20 01:36:57;;;;;;;9.93;6.57;;;;;;;22.80;55.65;96015.38;4986896;28;20502;-70
2023/06/20 01:39:27;;;;;;;6.17;5.57;;;;;;;22.68;56.24;96024.56;4987187;28;20411;-68
2023/06/20 01:41:57;;;;;;;7.33;6.70;;;;;;;22.67;56.24;96028.25;4985638;28;20811;-69
2023/06/20 01:44:22;;;;;;;9.00;5.83;;;;;;;22.71;55.62;96035.00;4985836;28;20770;-70
2023/06/20 01:46:50;;;;;;;12.57;6.00;;;;;;;22.62;56.10;96034.06;4986610;28;20427;-70
2023/06/20 01:49:16;;;;;;;6.10;5.50;;;;;;;22.62;56.09;96026.03;4986419;28;20268;-71
2023/06/20 01:51:42;;;;;;;9.50;5.20;;;;;;;22.67;56.06;96025.59;4986482;28;20444;-69
2023/06/20 01:54:09;;;;;;;8.23;5.67;;;;;;;22.81;55.67;96036.59;4986039;28;20416;-70
2023/06/20 01:56:37;;;;;;;6.73;5.40;;;;;;;22.78;56.05;96026.22;4986740;28;20280;-69
2023/06/20 01:59:04;;;;;;;6.10;5.37;;;;;;;22.80;56.16;96029.56;4980585;28;20419;-69
2023/06/20 02:01:31;;;;;;;5.60;5.00;;;;;;;22.85;56.36;96044.34;4967258;28;20466;-71
2023/06/20 02:03:59;;;;;;;10.53;6.33;;;;;;;23.00;55.04;96032.97;4998166;28;20525;-70
2023/06/20 02:06:26;;;;;;;9.03;5.63;;;;;;;23.08;55.01;96029.53;4967443;28;20420;-70
2023/06/20 02:08:54;;;;;;;6.83;5.07;;;;;;;23.03;55.28;96037.16;4967339;28;20421;-70
2023/06/20 02:11:21;;;;;;;6.60;4.60;;;;;;;23.12;54.98;96035.41;4972414;28;20446;-70
2023/06/20 02:13:49;;;;;;;4.90;4.33;;;;;;;22.86;55.82;96024.59;5010050;28;20476;-71
2023/06/20 02:16:16;;;;;;;5.60;4.17;;;;;;;22.81;56.20;96033.91;4986116;28;20920;-71
2023/06/20 02:18:41;;;;;;;4.77;4.27;;;;;;;22.78;56.26;96022.69;4986899;28;20422;-70
2023/06/20 02:21:13;;;;;;;4.63;3.97;;;;;;;22.79;56.47;96029.72;4986483;28;20447;-70
2023/06/20 02:23:39;;;;;;;8.80;5.03;;;;;;;23.00;55.11;96016.91;4986336;28;20242;-70
2023/06/20 02:26:10;;;;;;;4.50;4.10;;;;;;;23.10;54.74;96022.16;4986626;28;20412;-71
2023/06/20 02:28:42;;;;;;;4.50;4.10;;;;;;;23.09;54.64;96009.78;4986837;28;20890;-69
2023/06/20 02:31:10;;;;;;;4.50;3.77;;;;;;;23.22;53.85;96014.75;4985120;28;20470;-70
2023/06/20 02:33:37;;;;;;;4.70;3.80;;;;;;;23.18;53.70;96008.03;4986400;28;20695;-69
2023/06/20 02:36:05;;;;;;;8.43;4.30;;;;;;;23.03;54.37;96010.41;4986623;28;20531;-69
2023/06/20 02:38:31;;;;;;;4.90;3.90;;;;;;;22.88;55.77;96007.41;4986522;28;20436;-69
2023/06/20 02:40:57;;;;;;;7.40;4.20;;;;;;;22.75;56.28;96012.31;4987379;28;20836;-70
2023/06/20 02:43:22;;;;;;;4.60;4.03;;;;;;;22.67;56.89;96014.88;4985243;28;20459;-70
2023/06/20 02:45:53;;;;;;;5.83;3.47;;;;;;;22.62;57.38;96018.84;4986950;28;20597;-70
2023/06/20 02:48:29;;;;;;;5.47;4.07;;;;;;;22.55;57.97;96028.47;4986827;28;20176;-71
2023/06/20 02:51:22;;;;;;;3.70;3.37;;;;;;;22.41;58.54;96037.84;4990694;28;20435;-70
2023/06/20 02:53:57;;;;;;;3.70;3.40;;;;;;;22.36;59.30;96049.97;4989936;28;20737;-70
2023/06/20 02:56:24;;;;;;;10.00;4.23;;;;;;;22.41;58.94;96053.88;4990465;28;20427;-69
2023/06/20 02:58:52;;;;;;;17.63;4.20;;;;;;;22.39;59.30;96047.88;4990310;28;20509;-70
2023/06/20 03:01:30;;;;;;;12.57;3.60;;;;;;;22.37;58.96;96043.63;4990541;28;21112;-71
2023/06/20 03:04:01;;;;;;;18.17;3.77;;;;;;;22.45;58.77;96048.25;4989814;28;21002;-68
2023/06/20 03:06:28;;;;;;;4.23;2.83;;;;;;;22.47;58.57;96048.94;4990077;28;20404;-69
2023/06/20 03:08:56;;;;;;;13.03;4.10;;;;;;;22.34;58.81;96041.25;4990308;28;20431;-70
2023/06/20 03:11:22;;;;;;;4.63;2.93;;;;;;;22.41;58.18;96032.47;4990611;28;21060;-71
2023/06/20 03:13:48;;;;;;;7.53;3.43;;;;;;;22.32;58.67;96027.19;4990043;28;20416;-68
2023/06/20 03:16:13;;;;;;;12.87;5.33;;;;;;;22.46;57.82;96018.66;4989994;28;20283;-70
2023/06/20 03:18:39;;;;;;;12.73;4.83;;;;;;;22.52;57.79;96012.72;4989866;28;20181;-69
2023/06/20 03:21:05;;;;;;;15.63;4.37;;;;;;;22.43;57.86;96013.63;4989290;28;20216;-70
2023/06/20 03:23:31;;;;;;;14.07;3.27;;;;;;;22.46;57.88;96009.81;4989167;28;20471;-69
2023/06/20 03:25:57;;;;;;;7.03;2.83;;;;;;;22.35;57.58;96005.53;4989950;28;20231;-69
2023/06/20 03:28:22;;;;;;;19.33;3.73;;;;;;;22.09;58.78;96016.88;4989848;28;20650;-71
2023/06/20 03:30:48;;;;;;;11.80;3.10;;;;;;;22.20;58.68;96037.22;4990372;28;20260;-70
2023/06/20 03:33:13;;;;;;;17.63;4.60;;;;;;;22.15;59.03;96051.03;4989910;28;20180;-70
2023/06/20 03:35:40;;;;;;;17.53;3.53;;;;;;;22.10;59.32;96044.44;4989649;28;20187;-70
2023/06/20 03:38:05;;;;;;;10.83;3.90;;;;;;;21.80;60.78;96042.88;4989769;28;20169;-70
2023/06/20 03:40:31;;;;;;;4.10;3.10;;;;;;;21.66;61.27;96045.03;4988289;28;20426;-70
2023/06/20 03:42:56;;;;;;;7.40;2.60;;;;;;;21.77;60.54;96047.50;4989319;28;20305;-69
2023/06/20 03:45:22;;;;;;;19.63;4.10;;;;;;;21.97;60.95;96044.78;5020531;28;20299;-70
2023/06/20 03:47:47;;;;;;;7.20;3.40;;;;;;;22.04;60.94;96045.03;4990683;28;20204;-70
2023/06/20 03:50:13;;;;;;;5.67;3.97;;;;;;;21.96;60.90;96035.06;4989260;28;20168;-70
2023/06/20 03:52:38;;;;;;;11.70;3.67;;;;;;;21.80;61.29;96049.03;4989206;28;20280;-69
2023/06/20 03:55:04;;;;;;;7.47;4.13;;;;;;;21.87;61.99;96070.69;4988962;28;20177;-70
2023/06/20 03:57:29;;;;;;;7.10;3.03;;;;;;;21.67;63.03;96059.22;4989986;28;20177;-69
2023/06/20 03:59:55;;;;;;;11.33;3.60;;;;;;;21.68;63.27;96079.56;4992886;28;20224;-70
2023/06/20 04:02:20;;;;;;;11.10;3.20;;;;;;;21.68;63.34;96079.56;4994662;28;20201;-71
2023/06/20 04:04:49;;;;;;;9.70;3.50;;;;;;;21.69;63.25;96084.78;4994058;28;20196;-70
2023/06/20 04:07:18;;;;;;;8.47;3.40;;;;;;;21.62;64.26;96088.19;4994719;28;20235;-69
2023/06/20 04:09:46;;;;;;;8.50;3.37;;;;;;;21.66;63.48;96078.88;4995193;28;20431;-71
2023/06/20 04:12:12;;;;;;;7.37;3.33;;;;;;;21.52;63.90;96091.72;4992965;28;20440;-69
2023/06/20 04:14:37;;;;;;;11.83;3.80;;;;;;;21.48;64.51;96090.31;4988662;28;20423;-71
2023/06/20 04:17:03;;;;;;;9.80;3.67;;;;;;;21.35;65.04;96077.22;4988786;28;20268;-72
2023/06/20 04:19:29;;;;;;;30.47;5.97;;;;;;;21.44;64.67;96064.88;4988347;28;20176;-72
2023/06/20 04:21:54;;;;;;;6.30;3.90;;;;;;;21.39;63.96;96056.41;4988105;28;20212;-71
2023/06/20 04:24:19;;;;;;;13.10;3.77;;;;;;;21.33;64.39;96071.19;4987771;28;20551;-68
2023/06/20 04:26:45;;;;;;;17.50;4.23;;;;;;;21.44;64.04;96072.88;4988312;28;20193;-72
2023/06/20 04:29:10;;;;;;;5.20;3.70;;;;;;;21.32;64.82;96071.31;4988244;28;20173;-69
2023/06/20 04:31:36;;;;;;;19.63;5.40;;;;;;;21.49;64.07;96072.44;4988211;28;20219;-70
2023/06/20 04:34:01;;;;;;;21.13;5.87;;;;;;;;;;4988286;28;20176;-71
2023/06/20 04:36:35;;;;;;;8.57;4.73;;;;;;;21.63;64.22;96074.66;4984588;28;20185;-71
2023/06/20 04:39:02;;;;;;;32.40;7.67;;;;;;;21.82;63.82;96079.13;4982595;28;20188;-72
2023/06/20 04:41:28;;;;;;;11.80;4.27;;;;;;;21.77;64.34;96087.56;4987549;28;20552;-70
2023/06/20 04:43:53;;;;;;;17.53;5.93;;;;;;;21.73;64.46;96088.00;4982101;28;20575;-70
2023/06/20 04:46:19;;;;;;;13.13;4.73;;;;;;;21.92;64.26;96077.28;4973177;28;20188;-71
2023/06/20 04:48:45;;;;;;;14.47;5.63;;;;;;;21.72;63.97;96070.31;4984406;28;20181;-71
2023/06/20 04:51:11;;;;;;;12.13;4.20;;;;;;;21.70;64.14;96074.94;4979754;28;20870;-73
2023/06/20 04:53:37;;;;;;;8.63;5.33;;;;;;;21.65;64.93;96078.03;4983952;28;20526;-71
2023/06/20 04:56:03;;;;;;;5.70;4.73;;;;;;;21.68;65.06;96076.91;4979405;28;20189;-70
2023/06/20 04:58:28;;;;;;;11.80;6.07;;;;;;;21.62;65.00;96067.66;4984636;28;20192;-71
2023/06/20 05:00:59;;;;;;;10.70;6.47;;;;;;;21.69;64.83;96071.44;4983549;28;20250;-69
2023/06/20 05:03:25;;;;;;;9.90;4.60;;;;;;;21.68;64.69;96066.22;4980839;28;20299;-69
2023/06/20 05:05:51;;;;;;;16.73;6.67;;;;;;;21.70;64.80;96072.28;4983137;28;20854;-71
2023/06/20 05:08:16;;;;;;;8.10;5.50;;;;;;;21.66;65.21;96084.22;4976656;28;20272;-72
2023/06/20 05:10:42;;;;;;;12.80;5.50;;;;;;;21.70;65.15;96083.78;4982522;28;20197;-72
2023/06/20 05:13:07;;;;;;;16.50;5.80;;;;;;;21.78;64.86;96091.09;4977081;28;20205;-70
2023/06/20 05:15:32;;;;;;;18.77;6.17;;;;;;;21.77;64.98;96087.56;4975476;28;20188;-70
2023/06/20 05:17:58;;;;;;;8.47;5.70;;;;;;;21.61;66.00;96091.81;4984563;28;20195;-73
2023/06/20 05:20:24;;;;;;;10.93;6.00;;;;;;;21.64;65.63;96092.41;4981399;28;20192;-72
2023/06/20 05:22:49;;;;;;;27.83;8.23;;;;;;;21.72;64.88;96087.16;4977879;28;20212;-71
2023/06/20 05:25:15;;;;;;;22.70;8.50;;;;;;;21.81;65.17;96092.66;4972666;28;20308;-71
2023/06/20 05:27:40;;;;;;;32.57;10.00;;;;;;;21.72;65.18;96087.16;4983439;28;20196;-69
2023/06/20 05:30:08;;;;;;;18.73;7.93;;;;;;;21.70;65.45;96085.63;4981319;28;20268;-71
2023/06/20 05:32:33;;;;;;;28.17;7.87;;;;;;;21.88;64.75;96085.72;4983437;28;20289;-71
2023/06/20 05:34:59;;;;;;;23.13;8.30;;;;;;;21.90;64.91;96078.41;4983781;28;20458;-72
2023/06/20 05:37:24;;;;;;;33.73;9.70;;;;;;;22.10;64.23;96096.06;4983668;28;20354;-72
2023/06/20 05:39:49;;;;;;;14.07;8.43;;;;;;;22.40;63.75;96094.16;4984181;28;20193;-71
2023/06/20 05:42:16;;;;;;;18.47;8.77;;;;;;;22.74;62.62;96093.53;4980374;28;20748;-71
2023/06/20 05:44:42;;;;;;;13.43;7.50;;;;;;;23.10;61.17;96097.13;4982802;28;20208;-69
2023/06/20 05:47:08;;;;;;;23.77;8.90;;;;;;;23.36;60.29;96085.66;4980653;28;20440;-73
2023/06/20 05:49:33;;;;;;;36.00;8.93;;;;;;;23.43;59.54;96087.56;4984426;28;20621;-71
2023/06/20 05:51:59;;;;;;;26.07;8.60;;;;;;;23.40;60.08;96098.56;4984376;28;20443;-73
2023/06/20 05:54:25;;;;;;;21.47;8.50;;;;;;;23.78;58.79;96091.19;4983248;28;20575;-72
2023/06/20 05:56:51;;;;;;;10.60;7.53;;;;;;;23.88;58.97;96097.31;4976010;28;20189;-69
2023/06/20 05:59:16;;;;;;;8.50;6.93;;;;;;;23.94;58.31;96092.31;4979167;28;20180;-68
2023/06/20 06:01:41;;;;;;;12.27;8.07;;;;;;;24.05;58.37;96100.09;4983739;28;20287;-69
2023/06/20 06:04:07;;;;;;;19.90;8.00;;;;;;;24.23;57.83;96090.13;4991019;28;20665;-67
2023/06/20 06:06:33;;;;;;;11.03;7.83;;;;;;;24.32;57.50;96087.50;4997609;28;20245;-70
2023/06/20 06:08:58;;;;;;;11.30;7.90;;;;;;;24.30;57.31;96069.72;4995983;28;20176;-67
2023/06/20 06:11:25;;;;;;;13.57;7.00;;;;;;;24.51;56.58;96085.44;4985750;28;20697;-70
2023/06/20 06:13:51;;;;;;;25.73;8.10;;;;;;;24.66;56.19;96079.44;4985284;28;20256;-69
2023/06/20 06:16:17;;;;;;;13.97;7.30;;;;;;;24.64;56.06;96090.34;4984959;28;20416;-68
2023/06/20 06:18:43;;;;;;;19.00;7.93;;;;;;;25.01;55.26;96091.78;4984665;28;20412;-67
2023/06/20 06:21:09;;;;;;;14.33;7.03;;;;;;;25.00;54.84;96095.50;4984688;28;20443;-69
2023/06/20 06:23:34;;;;;;;11.87;7.60;;;;;;;25.03;54.67;96092.47;4982091;28;20231;-69
2023/06/20 06:26:00;;;;;;;9.00;7.43;;;;;;;25.11;54.23;96084.44;4984219;28;20187;-70
2023/06/20 06:28:28;;;;;;;22.43;8.57;;;;;;;25.25;54.49;96080.31;4983700;28;20177;-69
2023/06/20 06:31:11;;;;;;;11.97;8.30;;;;;;;25.29;54.62;96087.00;4982862;28;20463;-68
2023/06/20 06:33:37;;;;;;;43.30;9.97;;;;;;;25.48;54.23;96079.63;4983837;28;20763;-69
2023/06/20 06:36:04;;;;;;;14.17;8.00;;;;;;;25.64;53.45;96078.78;4984787;28;21235;-71
2023/06/20 06:38:29;;;;;;;11.70;7.30;;;;;;;25.91;52.89;96081.13;4983834;28;20446;-67
2023/06/20 06:40:55;;;;;;;19.37;8.40;;;;;;;25.82;53.19;96076.78;4983319;28;21185;-69
2023/06/20 06:43:21;;;;;;;9.07;7.50;;;;;;;25.63;53.40;96079.78;4983532;28;20184;-68
2023/06/20 06:45:47;;;;;;;12.43;7.53;;;;;;;25.89;52.85;96077.78;4983718;28;20173;-70
2023/06/20 06:48:12;;;;;;;16.60;9.33;;;;;;;26.25;52.21;96076.53;4983730;28;20195;-70
2023/06/20 06:50:37;;;;;;;12.07;6.80;;;;;;;26.43;51.34;96060.97;4982987;28;20803;-69
2023/06/20 06:53:03;;;;;;;15.60;7.30;;;;;;;26.24;51.14;96074.84;4983060;28;20215;-69
2023/06/20 06:55:28;;;;;;;19.87;7.90;;;;;;;26.24;51.21;96074.84;4983255;28;20176;-70
2023/06/20 06:57:54;;;;;;;16.33;7.90;;;;;;;26.32;51.25;96070.28;4986053;28;20204;-67
2023/06/20 07:00:19;;;;;;;12.00;7.40;;;;;;;26.42;50.62;96071.94;4985823;28;20184;-71
2023/06/20 07:02:45;;;;;;;15.20;7.90;;;;;;;26.75;50.08;96062.72;4982269;28;20281;-70
2023/06/20 07:05:11;;;;;;;13.70;8.77;;;;;;;26.81;49.72;96080.88;4986068;28;20200;-69
2023/06/20 07:07:37;;;;;;;44.43;11.53;;;;;;;26.85;49.71;96078.66;4985336;28;20540;-71
2023/06/20 07:10:03;;;;;;;14.70;7.00;;;;;;;27.02;49.49;96069.50;4985934;28;20426;-70
2023/06/20 07:12:28;;;;;;;27.93;7.77;;;;;;;26.99;49.13;96074.38;4983317;28;20196;-69
2023/06/20 07:14:56;;;;;;;24.70;8.40;;;;;;;27.20;48.58;96068.38;4985561;28;20256;-71
2023/06/20 07:17:25;;;;;;;23.03;7.63;;;;;;;27.22;48.60;96069.06;4986251;28;20235;-71
2023/06/20 07:19:54;;;;;;;28.90;8.80;;;;;;;27.36;48.13;96065.56;4987514;28;20913;-70
2023/06/20 07:22:21;;;;;;;26.03;8.23;;;;;;;27.35;48.21;96071.13;4985507;28;20487;-71
2023/06/20 07:24:46;;;;;;;20.10;8.10;;;;;;;27.44;47.50;96061.97;4984483;28;20483;-71
2023/06/20 07:27:12;;;;;;;7.97;6.33;;;;;;;27.51;47.47;96065.63;4985333;28;20424;-71
2023/06/20 07:29:37;;;;;;;10.67;6.13;;;;;;;27.55;47.51;96058.03;4985204;28;20165;-69
2023/06/20 07:32:03;;;;;;;25.03;6.97;;;;;;;27.45;47.38;96053.72;4984900;28;20580;-71
2023/06/20 07:34:29;;;;;;;13.10;6.77;;;;;;;27.43;48.08;96058.44;4984593;28;20789;-70
2023/06/20 07:36:54;;;;;;;19.93;7.37;;;;;;;27.59;47.50;96064.69;4989150;28;20312;-72
2023/06/20 07:39:20;;;;;;;18.20;6.33;;;;;;;27.69;46.73;96059.91;4989117;28;20593;-72
2023/06/20 07:41:45;;;;;;;14.17;6.40;;;;;;;27.84;46.27;96047.31;4989023;28;20196;-70
2023/06/20 07:44:11;;;;;;;11.40;6.10;;;;;;;27.93;45.85;96055.34;4988133;28;20204;-69
2023/06/20 07:46:38;;;;;;;13.53;6.70;;;;;;;28.10;45.55;96051.44;4988717;28;20645;-68
2023/06/20 07:49:03;;;;;;;18.57;6.60;;;;;;;28.18;45.28;96059.47;4988840;28;21019;-67
2023/06/20 07:51:33;;;;;;;12.37;6.83;;;;;;;28.37;44.77;96054.50;4989369;28;20478;-69
2023/06/20 07:53:59;;;;;;;21.63;6.30;;;;;;;28.27;44.90;96047.53;4988461;28;20259;-68
2023/06/20 07:56:24;;;;;;;9.43;5.97;;;;;;;28.43;44.13;96051.06;4989466;28;20542;-70
2023/06/20 07:58:49;;;;;;;9.47;6.67;;;;;;;28.49;43.67;96043.09;4988841;28;20958;-67
2023/06/20 08:01:15;;;;;;;12.70;6.60;;;;;;;28.49;43.48;96043.09;4988380;28;20616;-68
2023/06/20 08:03:41;;;;;;;26.83;8.23;;;;;;;28.65;43.41;96043.91;4987600;28;20196;-69
2023/06/20 08:06:06;;;;;;;26.67;7.87;;;;;;;28.73;42.98;96041.09;4988663;28;20181;-69
2023/06/20 08:08:31;;;;;;;12.77;5.80;;;;;;;28.56;42.37;96040.50;4988886;28;20235;-69
2023/06/20 08:10:57;;;;;;;16.60;6.00;;;;;;;28.39;43.43;96041.66;4988719;28;20171;-67
2023/06/20 08:13:25;;;;;;;10.93;6.50;;;;;;;28.54;43.50;96045.22;4988165;28;20171;-69
2023/06/20 08:15:50;;;;;;;12.33;5.70;;;;;;;28.56;44.10;96036.94;4986675;28;20172;-69
2023/06/20 08:18:15;;;;;;;7.77;6.00;;;;;;;28.75;42.97;96032.78;4988620;28;20904;-68
2023/06/20 08:20:41;;;;;;;16.70;7.17;;;;;;;28.91;42.21;96033.44;4988364;28;20222;-68
2023/06/20 08:23:07;;;;;;;15.63;7.10;;;;;;;29.02;42.64;96023.97;4988422;28;20215;-68
2023/06/20 08:25:32;;;;;;;9.33;5.50;;;;;;;28.99;42.50;96023.53;4987947;28;20323;-68
2023/06/20 08:27:57;;;;;;;11.50;6.93;;;;;;;28.97;41.77;96025.59;4989087;28;20196;-69
2023/06/20 08:30:23;;;;;;;10.43;6.37;;;;;;;29.09;41.14;96024.06;4988260;28;20215;-69
2023/06/20 08:32:48;;;;;;;8.10;5.27;;;;;;;29.23;41.26;96025.03;4988263;28;21017;-69
2023/06/20 08:35:14;;;;;;;11.40;7.07;;;;;;;29.43;41.40;96020.63;4988035;28;20174;-69
2023/06/20 08:37:41;;;;;;;12.13;5.60;;;;;;;29.47;40.50;96018.41;4988371;28;20223;-70
2023/06/20 08:40:09;;;;;;;10.87;6.37;;;;;;;29.63;40.76;96018.13;4987920;28;20180;-70
2023/06/20 08:42:34;;;;;;;18.90;7.87;;;;;;;29.72;40.43;96010.75;4983775;28;20450;-69
2023/06/20 08:45:00;;;;;;;20.77;7.00;;;;;;;29.66;40.04;96015.00;4987091;28;21085;-69
2023/06/20 08:47:25;;;;;;;8.00;5.93;;;;;;;29.72;40.05;96014.28;4987479;28;20194;-68
2023/06/20 08:49:50;;;;;;;11.77;5.97;;;;;;;29.69;40.34;96013.81;4987643;28;20274;-68
2023/06/20 08:52:21;;;;;;;15.40;7.93;;;;;;;29.60;40.82;96009.56;4987859;28;20212;-67
2023/06/20 08:54:46;;;;;;;9.57;6.30;;;;;;;29.60;40.92;96006.84;4986457;28;20164;-69
2023/06/20 08:57:12;;;;;;;16.13;7.60;;;;;;;29.78;39.85;96007.22;4985821;28;20419;-69
2023/06/20 08:59:37;;;;;;;23.37;7.40;;;;;;;29.95;39.67;96002.34;4976896;28;20622;-69
2023/06/20 09:02:03;;;;;;;14.13;7.10;;;;;;;30.21;39.51;96000.84;4967904;28;20211;-69
2023/06/20 09:04:29;;;;;;;24.27;8.50;;;;;;;30.38;38.86;96002.22;4967021;28;20201;-69
2023/06/20 09:06:54;;;;;;;20.97;7.63;;;;;;;30.43;38.55;95999.75;4968149;28;20419;-68
2023/06/20 09:09:21;;;;;;;11.60;6.80;;;;;;;30.44;39.00;95996.00;4968686;28;20246;-69
2023/06/20 09:11:58;;;;;;;34.03;10.10;;;;;;;30.44;37.58;96001.41;4972876;28;20744;-68
2023/06/20 09:14:28;;;;;;;23.10;7.47;;;;;;;30.51;38.12;96004.16;4985222;28;20442;-67
2023/06/20 09:16:54;;;;;;;34.23;8.40;;;;;;;30.62;37.71;95992.75;4987504;28;20465;-68
2023/06/20 09:19:20;;;;;;;10.33;6.13;;;;;;;30.60;37.61;95992.94;4987543;28;20431;-69
2023/06/20 09:21:46;;;;;;;9.00;5.90;;;;;;;30.59;37.09;95988.56;4986747;28;20454;-68
2023/06/20 09:24:17;;;;;;;9.70;6.37;;;;;;;30.73;37.48;95983.19;4987518;28;20447;-69
2023/06/20 09:26:43;;;;;;;12.60;6.97;;;;;;;30.86;36.78;95982.44;4987381;28;20179;-69
2023/06/20 09:29:10;;;;;;;45.00;8.87;;;;;;;30.93;36.62;95984.09;4991577;28;20411;-70
2023/06/20 09:31:44;;;;;;;34.87;8.80;;;;;;;31.16;36.21;95974.75;4987298;28;20199;-70
2023/06/20 09:34:11;;;;;;;15.57;5.87;;;;;;;31.05;35.94;95973.50;4987033;28;20644;-69
2023/06/20 09:36:36;;;;;;;20.03;6.53;;;;;;;31.13;36.12;95973.28;4987296;28;20415;-69
2023/06/20 09:39:07;;;;;;;20.10;7.20;;;;;;;31.13;35.46;95967.88;4987556;28;20757;-69
2023/06/20 09:41:32;;;;;;;19.87;6.37;;;;;;;31.18;35.07;95962.69;4987521;28;20192;-68
2023/06/20 09:43:57;;;;;;;9.70;5.67;;;;;;;30.98;35.35;95962.63;4987124;28;20455;-69
2023/06/20 09:46:23;;;;;;;12.13;5.87;;;;;;;30.97;34.59;95968.25;4986503;28;20168;-69
2023/06/20 09:48:49;;;;;;;24.50;7.40;;;;;;;30.86;35.09;95966.16;4986543;28;20662;-69
2023/06/20 09:51:15;;;;;;;10.23;6.10;;;;;;;31.18;33.97;95964.53;4988221;28;20188;-69
2023/06/20 09:53:46;;;;;;;23.60;6.97;;;;;;;31.14;33.82;95952.47;4987733;28;20411;-69
2023/06/20 09:56:12;;;;;;;13.07;6.43;;;;;;;30.88;34.31;95947.84;4988727;28;20657;-70
2023/06/20 09:58:43;;;;;;;21.80;6.57;;;;;;;30.73;34.08;95956.09;4985743;28;20442;-69
2023/06/20 10:01:13;;;;;;;15.47;6.73;;;;;;;30.67;33.40;95946.91;4987348;28;20427;-69
2023/06/20 10:03:39;;;;;;;19.50;6.83;;;;;;;30.79;32.88;95939.03;4987001;28;20974;-70
2023/06/20 10:06:05;;;;;;;8.60;5.70;;;;;;;30.96;33.18;95931.38;4987910;28;20415;-69
2023/06/20 10:08:31;;;;;;;15.13;6.23;;;;;;;31.06;32.15;95928.25;4987877;28;20526;-69
2023/06/20 10:10:57;;;;;;;6.90;6.27;;;;;;;31.01;29.39;95937.81;4987708;28;20447;-68
2023/06/20 10:13:24;;;;;;;8.10;5.27;;;;;;;31.09;29.44;95927.81;4987605;28;20403;-69
2023/06/20 10:15:49;;;;;;;13.50;6.43;;;;;;;31.18;29.09;95932.00;4987381;28;20894;-70
2023/06/20 10:18:19;;;;;;;8.00;4.77;;;;;;;30.94;28.52;95925.31;4987329;28;20415;-69
2023/06/20 10:20:44;;;;;;;12.47;5.53;;;;;;;31.05;27.60;95929.31;4987027;28;20169;-69
2023/06/20 10:23:10;;;;;;;8.63;5.20;;;;;;;31.15;27.73;95927.00;4987379;28;20427;-69
2023/06/20 10:25:51;;;;;;;10.27;5.37;;;;;;;30.78;30.04;95924.66;4987185;28;20299;-69
2023/06/20 10:28:19;;;;;;;6.63;5.93;;;;;;;30.80;28.09;95919.00;4987771;28;20196;-69
2023/06/20 10:30:50;;;;;;;8.07;5.60;;;;;;;30.79;28.51;95922.78;4987904;28;20446;-69
2023/06/20 10:33:29;;;;;;;6.40;5.80;;;;;;;30.96;27.77;95918.66;4987370;28;20419;-70
2023/06/20 10:36:05;;;;;;;11.90;5.67;;;;;;;30.87;27.29;95917.19;4986162;28;20425;-69
2023/06/20 10:38:55;;;;;;;10.80;5.20;;;;;;;31.06;27.85;95914.69;4987040;28;20859;-70
2023/06/20 10:41:24;;;;;;;14.07;7.00;;;;;;;30.91;27.69;95910.31;4986091;28;20450;-70
2023/06/20 10:43:54;;;;;;;6.03;5.40;;;;;;;30.88;27.94;95910.72;4986722;28;20487;-71
2023/06/20 10:46:41;;;;;;;7.17;4.93;;;;;;;30.87;28.03;95906.34;4986709;28;20420;-69
2023/06/20 10:49:08;;;;;;;21.30;6.60;;;;;;;30.65;28.17;95905.66;4985498;28;20521;-70
2023/06/20 10:51:46;;;;;;;12.10;6.40;;;;;;;31.04;27.09;95905.94;4987360;28;20431;-69
2023/06/20 10:54:12;;;;;;;6.87;6.17;;;;;;;31.23;26.24;95910.56;4986386;28;20403;-69
2023/06/20 10:56:38;;;;;;;20.90;7.10;;;;;;;31.40;25.69;95909.09;4987172;28;20423;-69
2023/06/20 10:59:13;;;;;;;10.63;6.00;;;;;;;31.41;25.17;95904.50;4987069;28;20411;-69
2023/06/20 11:01:39;;;;;;;14.10;7.10;;;;;;;31.49;25.14;95895.31;4986905;28;20334;-72
2023/06/20 11:04:08;;;;;;;14.03;6.77;;;;;;;31.42;25.31;95903.47;4986842;28;21190;-69
2023/06/20 11:06:33;;;;;;;9.30;5.97;;;;;;;31.18;25.59;95897.63;4988805;28;20181;-69
2023/06/20 11:08:59;;;;;;;8.30;6.43;;;;;;;31.26;25.94;95904.72;4988766;28;20496;-68
2023/06/20 11:11:31;;;;;;;25.87;7.40;;;;;;;31.36;25.70;95901.56;4992903;28;20700;-69
2023/06/20 11:14:21;;;;;;;8.83;6.00;;;;;;;31.49;25.82;95900.75;4992714;28;20264;-69
2023/06/20 11:16:48;;;;;;;24.33;7.60;;;;;;;31.55;25.67;95898.03;4992117;28;20404;-67
2023/06/20 11:19:14;;;;;;;7.50;5.40;;;;;;;31.67;25.68;95900.09;4991056;28;20521;-69
2023/06/20 11:21:40;;;;;;;37.33;9.23;;;;;;;31.66;24.96;95891.13;4989380;28;21135;-70
2023/06/20 11:24:06;;;;;;;7.10;5.23;;;;;;;31.48;24.89;95893.66;4990322;28;20204;-70
2023/06/20 11:26:33;;;;;;;21.80;6.50;;;;;;;31.27;25.18;95891.97;4990816;28;20415;-70
2023/06/20 11:29:02;;;;;;;11.93;5.90;;;;;;;31.27;24.83;95892.81;4991014;28;20222;-69
2023/06/20 11:31:28;;;;;;;15.20;5.67;;;;;;;31.28;25.37;95894.50;4988954;28;20800;-69